createdAt,value
2019-01-30T00:01:30.881Z,13.60
2019-01-30T00:03:59.777Z,13.10
2019-01-30T00:06:28.505Z,13.00
2019-01-30T00:08:57.257Z,13.43
2019-01-30T00:11:26.029Z,13.48
2019-01-30T00:13:54.804Z,13.45
2019-01-30T00:16:23.578Z,12.58
2019-01-30T00:18:52.358Z,13.00
2019-01-30T00:21:21.147Z,13.10
2019-01-30T00:23:49.922Z,15.10
2019-01-30T00:26:18.788Z,14.55
2019-01-30T00:28:47.658Z,13.53
2019-01-30T00:31:16.742Z,12.35
2019-01-30T00:33:45.521Z,14.00
2019-01-30T00:36:14.307Z,12.78
2019-01-30T00:38:43.125Z,13.13
2019-01-30T00:41:11.935Z,11.95
2019-01-30T00:43:40.690Z,13.13
2019-01-30T00:46:09.526Z,13.32
2019-01-30T00:48:38.374Z,12.78
2019-01-30T00:51:07.147Z,14.98
2019-01-30T00:53:36.212Z,12.95
2019-01-30T00:56:05.393Z,13.18
2019-01-30T00:58:34.315Z,13.78
2019-01-30T01:01:03.153Z,13.28
2019-01-30T01:03:31.914Z,13.18
2019-01-30T01:06:00.688Z,13.75
2019-01-30T01:08:29.569Z,13.78
2019-01-30T01:10:58.361Z,12.90
2019-01-30T01:13:27.221Z,13.05
2019-01-30T01:15:56.354Z,13.40
2019-01-30T01:18:25.135Z,13.55
2019-01-30T01:20:53.989Z,14.53
2019-01-30T01:23:22.804Z,13.95
2019-01-30T01:25:51.605Z,13.95
2019-01-30T01:28:20.362Z,12.75
2019-01-30T01:30:49.165Z,13.68
2019-01-30T01:33:18.017Z,12.85
2019-01-30T01:35:46.909Z,13.00
2019-01-30T01:38:15.717Z,13.62
2019-01-30T01:40:44.561Z,13.83
2019-01-30T01:43:13.471Z,13.25
2019-01-30T01:45:42.233Z,13.15
2019-01-30T01:48:11.002Z,13.20
2019-01-30T01:50:39.829Z,14.65
2019-01-30T01:53:08.665Z,12.60
2019-01-30T01:55:37.525Z,12.35
2019-01-30T01:58:06.691Z,12.68
2019-01-30T02:00:35.856Z,12.47
2019-01-30T02:03:05.271Z,12.73
2019-01-30T02:05:34.054Z,13.25
2019-01-30T02:08:02.837Z,12.88
2019-01-30T02:10:31.653Z,13.10
2019-01-30T02:13:00.469Z,13.20
2019-01-30T02:15:29.256Z,14.40
2019-01-30T02:17:58.063Z,14.45
2019-01-30T02:20:32.425Z,13.13
2019-01-30T02:23:01.221Z,15.70
2019-01-30T02:25:29.981Z,13.95
2019-01-30T02:27:58.777Z,12.75
2019-01-30T02:30:29.564Z,13.38
2019-01-30T02:32:58.534Z,14.33
2019-01-30T02:35:27.564Z,14.05
2019-01-30T02:37:56.434Z,13.48
2019-01-30T02:40:26.140Z,14.07
2019-01-30T02:42:54.926Z,13.48
2019-01-30T02:45:25.573Z,14.00
2019-01-30T02:47:54.411Z,12.95
2019-01-30T02:50:23.422Z,13.20
2019-01-30T02:52:52.249Z,14.00
2019-01-30T02:55:22.307Z,12.30
2019-01-30T02:57:51.424Z,12.63
2019-01-30T03:00:26.521Z,13.30
2019-01-30T03:02:55.431Z,12.25
2019-01-30T03:05:24.548Z,13.40
2019-01-30T03:07:53.433Z,12.60
2019-01-30T03:10:23.446Z,13.15
2019-01-30T03:12:52.335Z,12.93
2019-01-30T03:15:21.670Z,12.70
2019-01-30T03:17:50.458Z,12.95
2019-01-30T03:20:27.068Z,12.05
2019-01-30T03:22:55.973Z,14.05
2019-01-30T03:25:26.184Z,12.73
2019-01-30T03:27:55.277Z,13.25
2019-01-30T03:30:26.692Z,12.55
2019-01-30T03:32:55.631Z,12.28
2019-01-30T03:35:24.633Z,11.43
2019-01-30T03:37:53.769Z,11.93
2019-01-30T03:40:23.373Z,12.75
2019-01-30T03:42:52.315Z,12.58
2019-01-30T03:45:22.970Z,11.73
2019-01-30T03:47:51.923Z,12.68
2019-01-30T03:50:20.776Z,12.35
2019-01-30T03:52:49.569Z,11.85
2019-01-30T03:55:21.855Z,12.03
2019-01-30T03:57:50.639Z,11.97
2019-01-30T04:00:22.026Z,11.35
2019-01-30T04:02:51.175Z,11.73
2019-01-30T04:05:19.955Z,12.25
2019-01-30T04:07:49.210Z,12.05
2019-01-30T04:10:20.040Z,11.00
2019-01-30T04:12:48.956Z,12.37
2019-01-30T04:15:17.776Z,13.03
2019-01-30T04:17:46.526Z,12.85
2019-01-30T04:20:17.431Z,11.40
2019-01-30T04:22:46.276Z,11.48
2019-01-30T04:25:15.248Z,11.90
2019-01-30T04:27:44.411Z,11.95
2019-01-30T04:30:16.329Z,12.63
2019-01-30T04:32:45.123Z,11.05
2019-01-30T04:35:33.229Z,12.80
2019-01-30T04:38:21.050Z,23.07
2019-01-30T04:41:08.870Z,11.88
2019-01-30T04:43:56.697Z,10.43
2019-01-30T04:46:44.511Z,11.55
2019-01-30T04:49:32.371Z,13.25
2019-01-30T04:52:20.486Z,11.83
2019-01-30T04:55:08.269Z,11.70
2019-01-30T05:00:48.256Z,12.05
2019-01-30T05:06:29.130Z,12.10
2019-01-30T05:59:57.280Z,13.45
2019-01-30T06:02:38.531Z,13.95
2019-01-30T06:23:25.463Z,12.20
2019-01-30T06:26:06.941Z,12.50
2019-01-30T06:31:48.226Z,13.90
2019-01-30T06:34:36.052Z,13.22
2019-01-30T06:37:23.942Z,13.88
2019-01-30T06:40:11.790Z,12.85
2019-01-30T06:42:59.579Z,12.85
2019-01-30T06:45:47.684Z,13.03
2019-01-30T06:48:35.527Z,13.08
2019-01-30T06:51:23.333Z,12.40
2019-01-30T06:54:11.173Z,12.33
2019-01-30T07:06:02.295Z,12.23
2019-01-30T07:29:36.910Z,9.83
2019-01-30T07:44:14.014Z,10.72
2019-01-30T07:46:54.564Z,10.10
2019-01-30T07:49:34.733Z,11.30
2019-01-30T07:52:15.674Z,11.25
2019-01-30T07:54:56.799Z,11.63
2019-01-30T08:36:26.443Z,12.70
2019-01-30T08:39:14.605Z,14.30
2019-01-30T08:42:02.473Z,13.00
2019-01-30T08:44:50.836Z,13.20
2019-01-30T08:47:39.424Z,11.28
2019-01-30T08:50:27.219Z,12.85
2019-01-30T08:53:15.017Z,12.75
2019-01-30T09:02:09.337Z,10.45
2019-01-30T09:10:40.098Z,11.97
2019-01-30T09:13:28.068Z,13.40
2019-01-30T09:15:56.950Z,12.93
2019-01-30T09:18:25.762Z,13.60
2019-01-30T09:20:54.524Z,13.05
2019-01-30T09:23:23.291Z,13.20
2019-01-30T09:25:52.041Z,13.95
2019-01-30T09:28:20.784Z,13.72
2019-01-30T09:31:08.579Z,13.28
2019-01-30T09:33:37.419Z,12.28
2019-01-30T09:36:25.307Z,13.85
2019-01-30T09:39:13.173Z,13.00
2019-01-30T09:42:01.082Z,13.50
2019-01-30T09:44:49.147Z,13.13
2019-01-30T09:47:36.922Z,13.68
2019-01-30T09:50:24.791Z,12.65
2019-01-30T09:53:12.835Z,12.33
2019-01-30T09:56:00.654Z,13.05
2019-01-30T09:58:29.523Z,12.50
2019-01-30T10:01:17.336Z,12.25
2019-01-30T10:04:05.486Z,12.70
2019-01-30T10:06:53.571Z,12.30
2019-01-30T10:09:41.380Z,11.60
2019-01-30T10:12:29.201Z,11.33
2019-01-30T10:15:17.046Z,12.05
2019-01-30T10:18:04.972Z,12.05
2019-01-30T10:20:53.104Z,10.10
2019-01-30T10:23:41.285Z,11.33
2019-01-30T10:26:29.562Z,10.90
2019-01-30T10:29:17.645Z,10.08
2019-01-30T10:32:05.820Z,11.38
2019-01-30T10:34:53.943Z,10.00
2019-01-30T10:37:42.110Z,9.35
2019-01-30T10:40:30.074Z,9.93
2019-01-30T10:43:17.838Z,9.45
2019-01-30T10:46:05.653Z,10.88
2019-01-30T10:48:53.439Z,10.05
2019-01-30T10:51:41.292Z,11.12
2019-01-30T10:54:29.146Z,9.13
2019-01-30T10:57:16.960Z,10.13
2019-01-30T11:35:53.458Z,7.80
2019-01-30T11:56:56.696Z,8.68
2019-01-30T12:20:51.983Z,9.73
2019-01-30T12:53:42.109Z,10.63
2019-01-30T13:26:16.096Z,13.90
2019-01-30T13:29:03.886Z,14.23
2019-01-30T13:31:51.744Z,11.97
2019-01-30T13:34:48.632Z,14.55
2019-01-30T13:37:29.337Z,13.13
2019-01-30T13:40:17.233Z,14.68
2019-01-30T13:43:05.083Z,14.45
2019-01-30T13:45:53.100Z,14.15
2019-01-30T13:48:41.285Z,13.68
2019-01-30T13:51:29.214Z,14.50
2019-01-30T13:54:17.126Z,13.62
2019-01-30T13:57:05.300Z,13.28
2019-01-30T14:29:58.857Z,11.83
2019-01-30T14:32:39.420Z,12.30
2019-01-30T14:35:20.274Z,12.40
2019-01-30T14:38:00.790Z,11.73
2019-01-30T14:40:39.433Z,11.70
2019-01-30T14:43:20.055Z,10.85
2019-01-30T15:03:55.779Z,10.68
2019-01-30T15:54:44.760Z,9.15
2019-01-30T16:18:37.420Z,10.10
2019-01-30T17:21:03.021Z,9.30
2019-01-30T18:11:40.798Z,10.13
2019-01-30T18:20:17.595Z,10.72
2019-01-30T19:08:01.654Z,14.33
2019-01-30T19:31:36.491Z,14.93
2019-01-30T19:34:24.323Z,16.27
2019-01-30T19:37:12.190Z,14.68
2019-01-30T19:39:59.990Z,17.67
2019-01-30T19:42:47.768Z,15.55
2019-01-30T19:45:35.549Z,16.25
2019-01-30T19:48:23.439Z,16.55
2019-01-30T19:51:12.029Z,15.72
2019-01-30T19:54:00.166Z,17.10
2019-01-30T19:57:02.897Z,16.37
2019-01-30T19:59:38.645Z,17.60
2019-01-30T20:08:33.182Z,19.65
2019-01-30T20:23:09.562Z,20.25
2019-01-30T20:58:58.335Z,22.37
2019-01-30T21:01:39.854Z,25.45
2019-01-30T21:13:02.013Z,25.70
2019-01-30T21:15:42.765Z,24.25
2019-01-30T21:24:22.917Z,23.90
2019-01-30T21:39:05.637Z,24.57
2019-01-30T21:44:59.660Z,25.00
2019-01-30T21:56:51.588Z,24.40
2019-01-30T22:08:42.911Z,24.05
2019-01-30T22:35:29.042Z,24.70
2019-01-30T22:37:57.922Z,26.42
2019-01-30T22:40:26.902Z,27.40
2019-01-30T22:42:55.654Z,28.25
2019-01-30T22:45:24.500Z,27.30
2019-01-30T22:47:53.660Z,26.68
2019-01-30T22:50:23.251Z,28.57
2019-01-30T22:52:52.101Z,26.90
2019-01-30T22:55:22.598Z,27.90
2019-01-30T22:57:51.574Z,26.30
2019-01-30T23:00:23.603Z,29.75
2019-01-30T23:02:52.385Z,29.20
2019-01-30T23:05:48.196Z,28.12
2019-01-30T23:08:23.224Z,27.93
2019-01-30T23:11:03.698Z,27.45
2019-01-30T23:13:35.567Z,30.72
2019-01-30T23:16:19.553Z,30.20
2019-01-30T23:18:53.919Z,27.25
2019-01-30T23:21:53.021Z,28.32
2019-01-30T23:24:27.589Z,29.32
2019-01-30T23:27:05.090Z,29.67
2019-01-30T23:29:48.999Z,28.80
2019-01-30T23:32:23.480Z,26.65
2019-01-30T23:35:01.266Z,27.13
2019-01-30T23:37:42.347Z,29.52
2019-01-30T23:40:14.196Z,28.35
2019-01-30T23:43:00.939Z,29.65
2019-01-30T23:45:35.532Z,27.13
2019-01-30T23:48:26.881Z,29.45
2019-01-30T23:51:07.818Z,27.75
2019-01-30T23:53:54.582Z,28.00
2019-01-30T23:56:44.120Z,29.23
2019-01-30T23:59:16.096Z,29.42
